VIDP/DEL METAR and TAF weather

Enter ICAO airport designator
Station Type Date Time Source
VIDP METAR 2019/02/23 22:30 UTC NOAA

VIDP 232230Z 25003KT 1000 R28/P2000 R29/P2000 BR FEW040 SCT100 13/11 Q1011 NOSIG


Station Type Date Time Source
VIDP Decoded METAR 2019/02/23 22:30 UTC NOAA

New Delhi / Palam, India (VIDP) 28-34N 077-07E 233M
Feb 23, 2019 - 05:30 PM EST / 2019.02.23 2230 UTC
Wind: from the WSW (250 degrees) at 3 MPH (3 KT):0
Visibility: less than 1 mile:0
Sky conditions: partly cloudy
Weather: mist
Temperature: 55 F (13 C)
Dew Point: 51 F (11 C)
Relative Humidity: 87%
Pressure (altimeter): 29.85 in. Hg (1011 hPa)
ob: VIDP 232230Z 25003KT 1000 R28/P2000 R29/P2000 BR FEW040 SCT100 13/11 Q1011 NOSIG
cycle: 22

Station Type Date Time Source
VIDP TAF 2019/02/23 18:09 UTC NOAA

TAF VIDP 231700Z 2318/2424 31006KT 2800 HZ FEW040 SCT100
BECMG 2400/2402 25003KT 0600 MIFG
BECMG 2403/2405 32008KT 1800 BR HZ SCT100
BECMG 2407/2409 3500 HZ
BECMG 2418/2420 2500 HZ BR


Example: see airport list